createdAt,value
2023-05-09T00:03:08.997Z,100.00
2023-05-09T00:08:30.795Z,100.00
2023-05-09T00:13:53.227Z,100.00
2023-05-09T00:19:14.899Z,100.00
2023-05-09T00:24:36.612Z,100.00
2023-05-09T00:29:58.621Z,100.00
2023-05-09T00:35:20.441Z,100.00
2023-05-09T00:40:42.167Z,100.00
2023-05-09T00:46:04.440Z,100.00
2023-05-09T00:51:28.442Z,100.00
2023-05-09T00:56:51.271Z,100.00
2023-05-09T01:02:13.224Z,100.00
2023-05-09T01:07:57.037Z,100.00
2023-05-09T01:13:35.182Z,100.00
2023-05-09T01:19:25.854Z,100.00
2023-05-09T01:25:24.851Z,100.00
2023-05-09T01:30:47.476Z,100.00
2023-05-09T01:36:13.304Z,100.00
2023-05-09T01:41:37.461Z,100.00
2023-05-09T01:47:01.220Z,100.00
2023-05-09T01:52:25.561Z,100.00
2023-05-09T01:57:48.880Z,100.00
2023-05-09T02:03:11.623Z,100.00
2023-05-09T02:08:33.522Z,100.00
2023-05-09T02:13:55.334Z,100.00
2023-05-09T02:19:17.486Z,100.00
2023-05-09T02:24:40.484Z,100.00
2023-05-09T02:30:07.386Z,100.00
2023-05-09T02:35:29.659Z,100.00
2023-05-09T02:40:52.610Z,100.00
2023-05-09T02:46:14.533Z,100.00
2023-05-09T02:51:36.342Z,100.00
2023-05-09T02:56:59.225Z,100.00
2023-05-09T03:02:21.078Z,100.00
2023-05-09T03:07:42.933Z,100.00
2023-05-09T03:13:05.004Z,100.00
2023-05-09T03:18:26.798Z,100.00
2023-05-09T03:23:48.549Z,100.00
2023-05-09T03:29:10.302Z,100.00
2023-05-09T03:34:32.038Z,100.00
2023-05-09T03:39:53.855Z,100.00
2023-05-09T03:45:15.674Z,100.00
2023-05-09T03:50:37.647Z,100.00
2023-05-09T03:55:59.354Z,100.00
2023-05-09T04:01:21.111Z,100.00
2023-05-09T04:06:42.885Z,100.00
2023-05-09T04:12:04.812Z,100.00
2023-05-09T04:17:26.758Z,100.00
2023-05-09T04:22:48.569Z,100.00
2023-05-09T04:28:10.407Z,100.00
2023-05-09T04:33:32.240Z,100.00
2023-05-09T04:38:53.973Z,100.00
2023-05-09T04:44:17.065Z,100.00
2023-05-09T04:49:38.908Z,100.00
2023-05-09T04:55:01.029Z,100.00
2023-05-09T05:00:22.861Z,100.00
2023-05-09T05:05:45.004Z,100.00
2023-05-09T05:11:06.966Z,100.00
2023-05-09T05:16:28.797Z,100.00
2023-05-09T05:21:50.586Z,100.00
2023-05-09T05:27:12.463Z,100.00
2023-05-09T05:32:34.303Z,100.00
2023-05-09T05:37:56.138Z,100.00
2023-05-09T05:43:17.932Z,100.00
2023-05-09T05:48:39.646Z,100.00
2023-05-09T05:54:01.346Z,100.00
2023-05-09T05:59:23.059Z,100.00
2023-05-09T06:04:45.071Z,100.00
2023-05-09T06:10:08.087Z,100.00
2023-05-09T06:15:29.830Z,100.00
2023-05-09T06:20:51.594Z,100.00
2023-05-09T06:26:14.509Z,100.00
2023-05-09T06:31:38.834Z,100.00
2023-05-09T06:37:00.954Z,100.00
2023-05-09T06:42:22.706Z,100.00
2023-05-09T06:47:44.498Z,100.00
2023-05-09T06:53:06.238Z,100.00
2023-05-09T06:58:28.516Z,100.00
2023-05-09T07:03:50.307Z,100.00
2023-05-09T07:09:14.890Z,100.00
2023-05-09T07:14:36.674Z,99.34
2023-05-09T07:19:58.399Z,98.10
2023-05-09T07:25:20.447Z,96.66
2023-05-09T07:30:43.687Z,99.26
2023-05-09T07:36:05.652Z,93.90
2023-05-09T07:41:27.363Z,92.68
2023-05-09T07:46:49.107Z,89.88
2023-05-09T07:52:10.973Z,87.07
2023-05-09T07:57:32.912Z,83.71
2023-05-09T08:02:54.964Z,87.13
2023-05-09T08:08:16.828Z,84.00
2023-05-09T08:13:38.581Z,88.13
2023-05-09T08:19:00.296Z,88.56
2023-05-09T08:24:22.075Z,88.02
2023-05-09T08:29:43.883Z,87.20
2023-05-09T08:35:06.672Z,85.63
2023-05-09T08:40:28.399Z,85.17
2023-05-09T08:45:58.020Z,84.27
2023-05-09T08:51:21.357Z,87.47
2023-05-09T08:56:43.185Z,87.41
2023-05-09T09:02:09.722Z,85.03
2023-05-09T09:07:34.560Z,85.64
2023-05-09T09:12:58.976Z,83.74
2023-05-09T09:18:23.828Z,84.49
2023-05-09T09:23:47.576Z,85.02
2023-05-09T09:29:09.677Z,84.66
2023-05-09T09:34:31.414Z,82.97
2023-05-09T09:39:57.241Z,83.74
2023-05-09T09:45:20.414Z,83.14
2023-05-09T09:50:42.441Z,82.17
2023-05-09T09:56:04.458Z,81.37
2023-05-09T10:01:26.231Z,80.63
2023-05-09T10:07:03.657Z,78.80
2023-05-09T10:12:25.660Z,79.55
2023-05-09T10:17:50.496Z,78.12
2023-05-09T10:23:15.131Z,75.62
2023-05-09T10:28:40.303Z,77.29
2023-05-09T10:34:09.835Z,77.68
2023-05-09T10:39:32.231Z,75.63
2023-05-09T10:44:54.082Z,74.64
2023-05-09T10:50:17.139Z,75.21
2023-05-09T10:55:49.631Z,74.33
2023-05-09T11:01:11.384Z,73.54
2023-05-09T11:06:46.353Z,74.93
2023-05-09T11:12:13.559Z,74.94
2023-05-09T11:17:38.654Z,75.36
2023-05-09T11:23:03.680Z,75.83
2023-05-09T11:28:30.428Z,72.84
2023-05-09T11:33:58.134Z,70.59
2023-05-09T11:39:25.034Z,71.96
2023-05-09T11:44:48.636Z,70.10
2023-05-09T11:50:13.243Z,70.65
2023-05-09T11:55:37.998Z,70.57
2023-05-09T12:01:00.474Z,72.01
2023-05-09T12:06:22.767Z,71.53
2023-05-09T12:11:49.963Z,68.74
2023-05-09T12:17:12.338Z,68.89
2023-05-09T12:22:34.982Z,68.00
2023-05-09T12:27:57.254Z,69.48
2023-05-09T12:33:20.012Z,72.22
2023-05-09T12:38:52.769Z,72.67
2023-05-09T12:44:24.809Z,69.25
2023-05-09T12:49:50.686Z,71.62
2023-05-09T12:55:14.100Z,72.54
2023-05-09T13:00:46.282Z,66.11
2023-05-09T13:06:14.764Z,68.36
2023-05-09T13:11:37.837Z,69.46
2023-05-09T13:16:59.597Z,68.34
2023-05-09T13:22:21.407Z,68.51
2023-05-09T13:27:43.157Z,67.49
2023-05-09T13:33:16.735Z,69.04
2023-05-09T13:38:46.784Z,67.62
2023-05-09T13:44:08.555Z,66.49
2023-05-09T13:49:30.287Z,68.11
2023-05-09T13:54:52.192Z,65.99
2023-05-09T14:00:15.838Z,67.84
2023-05-09T14:05:37.790Z,67.27
2023-05-09T14:10:59.534Z,65.06
2023-05-09T14:16:21.917Z,66.09
2023-05-09T14:21:44.767Z,66.86
2023-05-09T14:27:06.485Z,65.10
2023-05-09T14:32:28.209Z,65.19
2023-05-09T14:37:49.917Z,66.43
2023-05-09T14:43:12.629Z,60.19
2023-05-09T14:48:34.370Z,64.14
2023-05-09T14:53:56.104Z,65.93
2023-05-09T14:59:18.034Z,66.70
2023-05-09T15:04:41.286Z,67.82
2023-05-09T15:10:03.429Z,69.28
2023-05-09T15:15:25.757Z,67.08
2023-05-09T15:20:47.536Z,66.76
2023-05-09T15:26:12.134Z,66.85
2023-05-09T15:31:36.266Z,66.00
2023-05-09T15:36:58.885Z,65.41
2023-05-09T15:42:20.737Z,64.91
2023-05-09T15:47:42.670Z,64.22
2023-05-09T15:53:05.357Z,64.23
2023-05-09T15:58:27.262Z,65.78
2023-05-09T16:03:49.262Z,66.34
2023-05-09T16:09:11.573Z,66.43
2023-05-09T16:14:33.477Z,65.89
2023-05-09T16:19:55.626Z,66.53
2023-05-09T16:25:17.507Z,67.71
2023-05-09T16:30:39.252Z,68.48
2023-05-09T16:36:02.060Z,70.09
2023-05-09T16:41:23.832Z,71.32
2023-05-09T16:46:47.115Z,73.18
2023-05-09T16:52:08.971Z,73.45
2023-05-09T16:57:30.776Z,73.01
2023-05-09T17:02:52.649Z,74.17
2023-05-09T17:08:14.677Z,75.00
2023-05-09T17:13:36.477Z,75.47
2023-05-09T17:18:58.271Z,77.47
2023-05-09T17:24:21.429Z,79.65
2023-05-09T17:29:43.237Z,79.22
2023-05-09T17:35:05.969Z,86.03
2023-05-09T17:40:27.787Z,87.22
2023-05-09T17:45:51.744Z,88.46
2023-05-09T17:51:13.584Z,85.97
2023-05-09T17:56:35.548Z,89.21
2023-05-09T18:01:57.385Z,92.09
2023-05-09T18:07:19.663Z,93.01
2023-05-09T18:12:41.712Z,93.92
2023-05-09T18:18:05.948Z,95.13
2023-05-09T18:23:27.946Z,94.80
2023-05-09T18:28:49.897Z,96.76
2023-05-09T18:34:11.653Z,100.00
2023-05-09T18:39:33.490Z,100.00
2023-05-09T18:44:55.897Z,98.80
2023-05-09T18:50:18.815Z,95.66
2023-05-09T18:55:40.853Z,97.15
2023-05-09T19:01:02.822Z,100.00
2023-05-09T19:06:26.145Z,99.75
2023-05-09T19:11:47.854Z,100.00
2023-05-09T19:17:10.835Z,100.00
2023-05-09T19:22:32.904Z,100.00
2023-05-09T19:27:54.734Z,100.00
2023-05-09T19:33:16.642Z,100.00
2023-05-09T19:38:38.471Z,100.00
2023-05-09T19:44:00.254Z,100.00
2023-05-09T19:49:21.975Z,100.00
2023-05-09T19:54:43.935Z,100.00
2023-05-09T20:00:07.302Z,100.00
2023-05-09T20:05:29.158Z,100.00
2023-05-09T20:10:51.324Z,100.00
2023-05-09T20:16:13.435Z,100.00
2023-05-09T20:21:35.390Z,100.00
2023-05-09T20:26:57.297Z,100.00
2023-05-09T20:32:19.103Z,100.00
2023-05-09T20:37:40.932Z,100.00
2023-05-09T20:43:02.838Z,100.00
2023-05-09T20:48:24.656Z,100.00
2023-05-09T20:53:46.384Z,100.00
2023-05-09T20:59:08.694Z,100.00
2023-05-09T21:04:30.536Z,100.00
2023-05-09T21:09:54.033Z,100.00
2023-05-09T21:15:15.815Z,100.00
2023-05-09T21:20:38.366Z,100.00
2023-05-09T21:26:00.430Z,100.00
2023-05-09T21:31:22.164Z,100.00
2023-05-09T21:36:43.919Z,100.00
2023-05-09T21:42:05.791Z,100.00
2023-05-09T21:47:28.563Z,100.00
2023-05-09T21:52:50.456Z,100.00
2023-05-09T21:58:12.193Z,100.00
2023-05-09T22:03:34.159Z,100.00
2023-05-09T22:08:56.015Z,100.00
2023-05-09T22:14:18.110Z,100.00
2023-05-09T22:19:40.549Z,100.00
2023-05-09T22:25:04.535Z,100.00
2023-05-09T22:30:26.419Z,100.00
2023-05-09T22:35:48.138Z,100.00
2023-05-09T22:41:09.980Z,100.00
2023-05-09T22:46:31.771Z,100.00
2023-05-09T22:51:53.569Z,100.00
2023-05-09T22:57:17.797Z,100.00
2023-05-09T23:02:39.681Z,100.00
2023-05-09T23:08:01.593Z,100.00
2023-05-09T23:13:23.554Z,100.00
2023-05-09T23:18:45.396Z,100.00
2023-05-09T23:24:07.336Z,100.00
2023-05-09T23:29:29.065Z,100.00
2023-05-09T23:34:50.799Z,100.00
2023-05-09T23:40:13.106Z,100.00
2023-05-09T23:45:34.863Z,100.00
2023-05-09T23:50:56.590Z,100.00
2023-05-09T23:56:18.385Z,100.00
